createdAt,value
2018-09-20T00:02:08.262Z,100055.54
2018-09-20T00:05:12.991Z,100049.30
2018-09-20T00:08:17.525Z,100048.92
2018-09-20T00:11:22.264Z,100044.02
2018-09-20T00:14:27.305Z,100049.02
2018-09-20T00:17:31.851Z,100047.45
2018-09-20T00:20:36.473Z,100046.80
2018-09-20T00:23:41.190Z,100044.17
2018-09-20T00:26:45.789Z,100041.20
2018-09-20T00:29:50.464Z,100043.58
2018-09-20T00:32:55.454Z,100040.98
2018-09-20T00:36:00.110Z,100032.16
2018-09-20T00:39:07.475Z,100030.75
2018-09-20T00:42:12.061Z,100037.66
2018-09-20T00:45:16.881Z,100040.03
2018-09-20T00:48:21.588Z,100041.50
2018-09-20T00:51:26.184Z,100039.38
2018-09-20T00:54:30.813Z,100044.50
2018-09-20T00:57:35.524Z,100042.92
2018-09-20T01:00:40.075Z,100043.03
2018-09-20T01:03:44.677Z,100046.38
2018-09-20T01:06:49.409Z,100041.16
2018-09-20T01:09:54.079Z,100038.34
2018-09-20T01:12:58.773Z,100043.14
2018-09-20T01:16:03.404Z,100041.25
2018-09-20T01:19:08.111Z,100040.41
2018-09-20T01:22:12.693Z,100040.06
2018-09-20T01:25:17.313Z,100045.55
2018-09-20T01:28:22.119Z,100043.82
2018-09-20T01:31:26.824Z,100042.05
2018-09-20T01:34:31.405Z,100035.59
2018-09-20T01:37:36.164Z,100034.60
2018-09-20T01:41:08.986Z,100038.23
2018-09-20T01:44:14.425Z,100039.02
2018-09-20T01:47:19.138Z,100037.58
2018-09-20T01:50:23.795Z,100037.52
2018-09-20T01:53:28.460Z,100035.96
2018-09-20T01:56:33.050Z,100036.16
2018-09-20T01:59:37.654Z,100032.68
2018-09-20T02:02:42.383Z,100035.81
2018-09-20T02:05:47.076Z,100036.66
2018-09-20T02:08:51.777Z,100034.11
2018-09-20T02:11:56.677Z,100034.42
2018-09-20T02:15:01.235Z,100041.02
2018-09-20T02:18:05.889Z,100044.25
2018-09-20T02:21:10.609Z,100046.91
2018-09-20T02:24:15.267Z,100041.43
2018-09-20T02:27:19.855Z,100042.29
2018-09-20T02:30:24.482Z,100044.25
2018-09-20T02:33:29.145Z,100041.59
2018-09-20T02:36:33.804Z,100039.80
2018-09-20T02:39:38.428Z,100040.69
2018-09-20T02:42:43.185Z,100037.50
2018-09-20T02:45:47.730Z,100041.70
2018-09-20T02:48:52.393Z,100043.50
2018-09-20T02:51:56.989Z,100038.55
2018-09-20T02:55:01.660Z,100044.16
2018-09-20T02:58:06.317Z,100047.49
2018-09-20T03:01:10.880Z,100051.88
2018-09-20T03:04:15.473Z,100051.94
2018-09-20T03:07:20.069Z,100037.18
2018-09-20T03:10:24.622Z,100040.42
2018-09-20T03:13:29.327Z,100041.47
2018-09-20T03:16:33.916Z,100042.79
2018-09-20T03:19:38.696Z,100046.00
2018-09-20T03:22:43.374Z,100043.77
2018-09-20T03:25:48.107Z,100045.44
2018-09-20T03:28:52.839Z,100046.66
2018-09-20T03:31:57.363Z,100046.59
2018-09-20T03:35:02.035Z,100047.13
2018-09-20T03:38:06.689Z,100046.20
2018-09-20T03:41:11.234Z,100048.63
2018-09-20T03:44:15.949Z,100045.03
2018-09-20T03:47:20.550Z,100040.22
2018-09-20T03:50:25.241Z,100040.43
2018-09-20T03:53:29.963Z,100046.39
2018-09-20T03:56:34.696Z,100045.85
2018-09-20T03:59:39.354Z,100042.99
2018-09-20T04:02:43.938Z,100049.16
2018-09-20T04:05:48.816Z,100052.03
2018-09-20T04:08:53.381Z,100056.16
2018-09-20T04:11:58.035Z,100050.59
2018-09-20T04:15:02.741Z,100048.34
2018-09-20T04:18:07.347Z,100046.53
2018-09-20T04:21:11.917Z,100047.61
2018-09-20T04:24:16.655Z,100054.84
2018-09-20T04:27:22.251Z,100049.42
2018-09-20T04:30:26.741Z,100049.96
2018-09-20T04:33:31.515Z,100050.67
2018-09-20T04:36:36.217Z,100053.45
2018-09-20T04:39:40.804Z,100055.88
2018-09-20T04:42:45.510Z,100057.84
2018-09-20T04:45:50.266Z,100058.24
2018-09-20T04:48:54.883Z,100062.62
2018-09-20T04:51:59.600Z,100068.87
2018-09-20T04:55:04.212Z,100073.69
2018-09-20T04:58:08.916Z,100072.75
2018-09-20T05:01:13.540Z,100079.38
2018-09-20T05:04:19.289Z,100080.09
2018-09-20T05:07:24.011Z,100078.45
2018-09-20T05:10:28.592Z,100078.09
2018-09-20T05:13:33.310Z,100086.44
2018-09-20T05:16:37.875Z,100086.26
2018-09-20T05:19:42.849Z,100088.89
2018-09-20T05:22:47.626Z,100090.88
2018-09-20T05:25:53.006Z,100093.75
2018-09-20T05:28:57.609Z,100091.77
2018-09-20T05:32:02.321Z,100092.66
2018-09-20T05:35:07.068Z,100091.23
2018-09-20T05:38:11.662Z,100091.63
2018-09-20T05:41:16.632Z,100094.16
2018-09-20T05:44:21.365Z,100095.98
2018-09-20T05:47:25.966Z,100095.13
2018-09-20T05:50:30.640Z,100090.05
2018-09-20T05:53:35.216Z,100096.85
2018-09-20T05:56:39.978Z,100095.73
2018-09-20T05:59:44.593Z,100083.31
2018-09-20T06:02:49.239Z,100083.41
2018-09-20T06:05:53.948Z,100084.88
2018-09-20T06:08:58.574Z,100083.73
2018-09-20T06:12:03.232Z,100087.95
2018-09-20T06:15:08.070Z,100093.44
2018-09-20T06:18:12.716Z,100095.57
2018-09-20T06:21:17.709Z,100097.80
2018-09-20T06:24:22.298Z,100092.45
2018-09-20T06:27:26.926Z,100098.02
2018-09-20T06:30:31.521Z,100094.65
2018-09-20T06:33:36.378Z,100098.61
2018-09-20T06:36:41.040Z,100089.13
2018-09-20T06:39:45.584Z,100089.91
2018-09-20T06:42:50.239Z,100092.86
2018-09-20T06:45:54.818Z,100092.58
2018-09-20T06:48:59.563Z,100093.92
2018-09-20T06:52:04.317Z,100092.55
2018-09-20T06:55:09.355Z,100095.02
2018-09-20T06:58:13.910Z,100097.45
2018-09-20T07:01:18.746Z,100093.30
2018-09-20T07:04:23.343Z,100089.76
2018-09-20T07:07:28.030Z,100096.75
2018-09-20T07:10:32.698Z,100096.42
2018-09-20T07:13:37.427Z,100090.65
2018-09-20T07:16:41.961Z,100091.34
2018-09-20T07:19:46.583Z,100087.65
2018-09-20T07:22:51.434Z,100094.00
2018-09-20T07:25:56.032Z,100094.36
2018-09-20T07:29:01.036Z,100095.02
2018-09-20T07:32:06.020Z,100096.62
2018-09-20T07:35:10.785Z,100083.92
2018-09-20T07:38:15.509Z,100093.00
2018-09-20T07:41:20.267Z,100095.45
2018-09-20T07:44:25.085Z,100094.84
2018-09-20T07:47:29.685Z,100101.62
2018-09-20T07:50:34.667Z,100096.86
2018-09-20T07:53:39.352Z,100103.33
2018-09-20T07:56:43.971Z,100099.02
2018-09-20T07:59:48.574Z,100096.47
2018-09-20T08:02:53.154Z,100098.52
2018-09-20T08:05:57.724Z,100100.66
2018-09-20T08:09:02.370Z,100089.28
2018-09-20T08:12:06.897Z,100096.44
2018-09-20T08:15:11.613Z,100089.89
2018-09-20T08:18:16.356Z,100091.52
2018-09-20T08:21:21.610Z,100089.62
2018-09-20T08:24:26.193Z,100079.93
2018-09-20T08:27:30.952Z,100079.67
2018-09-20T08:30:35.808Z,100084.25
2018-09-20T08:33:40.394Z,100079.27
2018-09-20T08:36:45.101Z,100076.09
2018-09-20T08:39:49.857Z,100075.86
2018-09-20T08:42:54.463Z,100075.25
2018-09-20T08:45:59.284Z,100070.63
2018-09-20T08:49:04.132Z,100071.77
2018-09-20T08:52:08.853Z,100066.74
2018-09-20T08:55:13.439Z,100067.86
2018-09-20T08:58:18.111Z,100066.36
2018-09-20T09:01:22.809Z,100068.50
2018-09-20T09:04:27.386Z,100064.85
2018-09-20T09:07:32.203Z,100056.81
2018-09-20T09:10:36.831Z,100046.39
2018-09-20T09:13:41.481Z,100044.78
2018-09-20T09:16:46.064Z,100044.66
2018-09-20T09:19:50.717Z,100035.14
2018-09-20T09:22:55.421Z,100035.62
2018-09-20T09:26:00.059Z,100026.34
2018-09-20T09:29:04.803Z,100018.88
2018-09-20T09:32:09.572Z,100018.30
2018-09-20T09:35:14.336Z,100021.42
2018-09-20T09:38:18.969Z,100017.08
2018-09-20T09:41:23.542Z,100011.06
2018-09-20T09:44:28.267Z,100014.58
2018-09-20T09:47:32.834Z,100003.37
2018-09-20T09:50:37.453Z,100003.52
2018-09-20T09:53:42.097Z,99995.92
2018-09-20T09:56:46.682Z,99989.22
2018-09-20T09:59:51.398Z,99980.32
2018-09-20T10:02:57.016Z,99981.39
2018-09-20T10:06:01.767Z,99980.08
2018-09-20T10:09:10.409Z,99981.77
2018-09-20T10:12:15.150Z,99972.65
2018-09-20T10:15:19.870Z,99969.06
2018-09-20T10:18:24.578Z,99961.84
2018-09-20T10:21:29.110Z,99948.30
2018-09-20T10:24:33.716Z,99952.86
2018-09-20T10:27:38.668Z,99942.93
2018-09-20T10:30:43.340Z,99950.97
2018-09-20T10:33:47.957Z,99952.23
2018-09-20T10:36:52.486Z,99944.62
2018-09-20T10:39:57.154Z,99935.02
2018-09-20T10:43:01.775Z,99944.57
2018-09-20T10:46:06.363Z,99944.42
2018-09-20T10:49:11.062Z,99939.16
2018-09-20T10:52:15.717Z,99939.14
2018-09-20T10:55:20.313Z,99925.00
2018-09-20T10:58:24.963Z,99924.48
2018-09-20T11:01:29.598Z,99923.78
2018-09-20T11:04:34.205Z,99912.98
2018-09-20T11:07:38.779Z,99908.77
2018-09-20T11:10:43.401Z,99895.22
2018-09-20T11:13:47.963Z,99897.53
2018-09-20T11:16:52.531Z,99900.70
2018-09-20T11:19:57.149Z,99895.02
2018-09-20T11:23:01.713Z,99884.31
2018-09-20T11:26:06.362Z,99891.28
2018-09-20T11:29:11.019Z,99877.33
2018-09-20T11:32:15.584Z,99883.09
2018-09-20T11:35:20.199Z,99874.43
2018-09-20T11:38:24.944Z,99865.98
2018-09-20T11:41:29.507Z,99866.20
2018-09-20T11:44:34.075Z,99870.09
2018-09-20T11:47:38.708Z,99866.50
2018-09-20T11:50:43.480Z,99860.80
2018-09-20T11:53:48.101Z,99858.91
2018-09-20T11:56:53.446Z,99858.26
2018-09-20T11:59:58.161Z,99861.56
2018-09-20T12:03:02.758Z,99847.18
2018-09-20T12:06:07.355Z,99849.52
2018-09-20T12:09:12.006Z,99839.88
2018-09-20T12:12:16.793Z,99840.42
2018-09-20T12:15:21.471Z,99834.55
2018-09-20T12:18:26.010Z,99823.92
2018-09-20T12:21:30.889Z,99817.19
2018-09-20T12:24:35.471Z,99818.61
2018-09-20T12:27:40.062Z,99818.33
2018-09-20T12:30:44.680Z,99805.59
2018-09-20T12:33:49.337Z,99803.66
2018-09-20T12:36:53.921Z,99797.25
2018-09-20T12:39:58.553Z,99788.66
2018-09-20T12:43:03.187Z,99792.83
2018-09-20T12:46:08.103Z,99789.02
2018-09-20T12:49:12.733Z,99783.02
2018-09-20T12:52:17.363Z,99772.89
2018-09-20T12:55:22.116Z,99774.14
2018-09-20T12:58:31.783Z,99771.98
2018-09-20T13:01:36.464Z,99765.50
2018-09-20T13:04:41.059Z,99769.19
2018-09-20T13:07:45.831Z,99771.78
2018-09-20T13:10:50.984Z,99760.85
2018-09-20T13:13:55.516Z,99757.37
2018-09-20T13:17:00.188Z,99759.00
2018-09-20T13:20:05.210Z,99746.45
2018-09-20T13:23:10.400Z,99752.95
2018-09-20T13:26:14.962Z,99745.55
2018-09-20T13:29:19.512Z,99741.06
2018-09-20T13:32:24.213Z,99742.41
2018-09-20T13:35:28.829Z,99742.40
2018-09-20T13:38:33.673Z,99739.16
2018-09-20T13:41:38.307Z,99736.73
2018-09-20T13:44:42.875Z,99735.00
2018-09-20T13:47:47.597Z,99728.86
2018-09-20T13:50:52.208Z,99733.03
2018-09-20T13:53:56.830Z,99733.39
2018-09-20T13:57:01.398Z,99725.15
2018-09-20T14:00:07.288Z,99726.06
2018-09-20T14:03:11.942Z,99725.14
2018-09-20T14:06:16.535Z,99728.66
2018-09-20T14:09:21.193Z,99725.83
2018-09-20T14:12:25.726Z,99720.55
2018-09-20T14:15:30.396Z,99720.77
2018-09-20T14:18:34.890Z,99713.58
2018-09-20T14:21:39.453Z,99712.44
2018-09-20T14:24:44.014Z,99712.88
2018-09-20T14:27:48.834Z,99703.17
2018-09-20T14:30:53.410Z,99707.80
2018-09-20T14:33:58.165Z,99707.80
2018-09-20T14:37:03.105Z,99705.47
2018-09-20T14:40:07.890Z,99706.52
2018-09-20T14:43:12.620Z,99706.41
2018-09-20T14:46:17.227Z,99692.75
2018-09-20T14:49:22.157Z,99687.84
2018-09-20T14:53:02.596Z,99686.70
2018-09-20T14:56:07.128Z,99682.95
2018-09-20T14:59:11.660Z,99685.28
2018-09-20T15:02:16.113Z,99685.25
2018-09-20T15:05:20.843Z,99686.89
2018-09-20T15:08:25.393Z,99686.05
2018-09-20T15:11:29.846Z,99680.78
2018-09-20T15:14:34.421Z,99676.77
2018-09-20T15:17:38.919Z,99669.31
2018-09-20T15:20:43.382Z,99671.81
2018-09-20T15:23:47.844Z,99674.37
2018-09-20T15:26:52.300Z,99678.94
2018-09-20T15:29:56.795Z,99671.41
2018-09-20T15:33:01.481Z,99670.76
2018-09-20T15:36:05.981Z,99670.09
2018-09-20T15:39:11.909Z,99669.30
2018-09-20T15:42:16.404Z,99665.95
2018-09-20T15:45:21.020Z,99659.03
2018-09-20T15:48:25.544Z,99658.11
2018-09-20T15:51:30.001Z,99654.31
2018-09-20T15:54:34.495Z,99656.66
2018-09-20T15:57:39.352Z,99658.48
2018-09-20T16:00:43.989Z,99653.38
2018-09-20T16:03:48.676Z,99656.47
2018-09-20T16:06:53.207Z,99654.31
2018-09-20T16:09:57.695Z,99657.45
2018-09-20T16:13:02.148Z,99655.02
2018-09-20T16:16:06.719Z,99658.09
2018-09-20T16:19:11.226Z,99649.80
2018-09-20T16:22:15.788Z,99655.83
2018-09-20T16:25:20.248Z,99653.02
2018-09-20T16:28:44.145Z,99650.64
2018-09-20T16:33:00.532Z,99639.19
2018-09-20T16:36:35.158Z,99632.59
2018-09-20T16:39:42.856Z,99633.91
2018-09-20T16:42:50.060Z,99615.80
2018-09-20T16:45:54.490Z,99618.25
2018-09-20T16:48:59.001Z,99618.98
2018-09-20T16:52:03.480Z,99621.39
2018-09-20T16:55:08.051Z,99616.87
2018-09-20T16:58:12.668Z,99618.26
2018-09-20T17:01:17.625Z,99616.70
2018-09-20T17:04:22.184Z,99611.39
2018-09-20T17:07:26.757Z,99615.81
2018-09-20T17:10:31.274Z,99615.92
2018-09-20T17:13:35.831Z,99613.50
2018-09-20T17:16:40.318Z,99613.06
2018-09-20T17:19:44.907Z,99616.94
2018-09-20T17:22:49.555Z,99613.21
2018-09-20T17:25:54.115Z,99614.80
2018-09-20T17:28:58.743Z,99617.75
2018-09-20T17:32:03.197Z,99623.30
2018-09-20T17:35:08.665Z,99621.13
2018-09-20T17:38:14.159Z,99618.14
2018-09-20T17:41:22.336Z,99627.03
2018-09-20T17:44:27.093Z,99619.22
2018-09-20T17:47:31.732Z,99620.53
2018-09-20T17:50:36.453Z,99623.80
2018-09-20T17:53:41.941Z,99630.83
2018-09-20T17:56:47.219Z,99632.25
2018-09-20T17:59:51.902Z,99622.09
2018-09-20T18:02:56.439Z,99624.83
2018-09-20T18:06:00.902Z,99626.84
2018-09-20T18:09:08.595Z,99625.56
2018-09-20T18:12:13.191Z,99627.89
2018-09-20T18:15:17.776Z,99632.33
2018-09-20T18:18:22.308Z,99632.67
2018-09-20T18:21:27.106Z,99633.22
2018-09-20T18:24:31.937Z,99626.44
2018-09-20T18:27:36.475Z,99628.17
2018-09-20T18:30:41.026Z,99629.63
2018-09-20T18:33:45.527Z,99629.63
2018-09-20T18:36:50.068Z,99626.91
2018-09-20T18:39:54.634Z,99630.80
2018-09-20T18:42:59.161Z,99630.26
2018-09-20T18:46:03.733Z,99625.61
2018-09-20T18:49:08.771Z,99628.39
2018-09-20T18:52:13.293Z,99626.47
2018-09-20T18:55:18.032Z,99630.58
2018-09-20T18:58:22.582Z,99626.22
2018-09-20T19:01:27.181Z,99635.75
2018-09-20T19:04:31.739Z,99633.03
2018-09-20T19:07:36.272Z,99630.02
2018-09-20T19:10:41.291Z,99631.92
2018-09-20T19:13:45.898Z,99632.22
2018-09-20T19:16:50.496Z,99633.84
2018-09-20T19:19:54.989Z,99632.98
2018-09-20T19:22:59.598Z,99629.98
2018-09-20T19:26:04.088Z,99632.16
2018-09-20T19:29:08.558Z,99629.97
2018-09-20T19:32:13.088Z,99628.28
2018-09-20T19:35:17.572Z,99628.30
2018-09-20T19:38:22.055Z,99631.55
2018-09-20T19:41:26.556Z,99630.38
2018-09-20T19:44:31.135Z,99621.39
2018-09-20T19:47:35.556Z,99616.75
2018-09-20T19:50:40.120Z,99617.03
2018-09-20T19:53:44.660Z,99618.66
2018-09-20T19:56:49.162Z,99618.59
2018-09-20T19:59:53.641Z,99615.56
2018-09-20T20:02:58.191Z,99613.09
2018-09-20T20:06:02.894Z,99613.86
2018-09-20T20:09:12.244Z,99611.16
2018-09-20T20:12:16.722Z,99609.72
2018-09-20T20:15:21.357Z,99603.16
2018-09-20T20:18:25.944Z,99607.77
2018-09-20T20:21:30.477Z,99608.00
2018-09-20T20:24:35.184Z,99607.69
2018-09-20T20:27:39.661Z,99606.37
2018-09-20T20:30:44.195Z,99602.17
2018-09-20T20:33:48.628Z,99591.23
2018-09-20T20:36:53.052Z,99582.45
2018-09-20T20:39:57.596Z,99585.72
2018-09-20T20:43:02.156Z,99584.30
2018-09-20T20:46:06.768Z,99586.14
2018-09-20T20:49:11.319Z,99576.86
2018-09-20T20:52:15.961Z,99582.52
2018-09-20T20:55:20.440Z,99577.34
2018-09-20T20:58:25.097Z,99581.70
2018-09-20T21:01:29.743Z,99579.76
2018-09-20T21:04:34.271Z,99578.56
2018-09-20T21:07:38.685Z,99571.98
2018-09-20T21:10:43.193Z,99575.52
2018-09-20T21:13:47.783Z,99568.10
2018-09-20T21:16:52.279Z,99564.77
2018-09-20T21:19:56.885Z,99562.04
2018-09-20T21:23:01.348Z,99562.76
2018-09-20T21:26:06.133Z,99560.28
2018-09-20T21:29:10.659Z,99562.19
2018-09-20T21:32:15.157Z,99557.27
2018-09-20T21:35:19.610Z,99553.13
2018-09-20T21:38:24.085Z,99554.14
2018-09-20T21:41:28.537Z,99552.34
2018-09-20T21:44:33.115Z,99548.23
2018-09-20T21:47:37.551Z,99549.28
2018-09-20T21:50:42.038Z,99545.42
2018-09-20T21:53:46.536Z,99539.89
2018-09-20T21:56:50.992Z,99543.67
2018-09-20T21:59:55.435Z,99538.47
2018-09-20T22:03:03.675Z,99543.63
2018-09-20T22:06:08.190Z,99540.67
2018-09-20T22:09:14.582Z,99542.00
2018-09-20T22:12:19.526Z,99532.09
2018-09-20T22:15:25.877Z,99536.98
2018-09-20T22:18:30.361Z,99528.02
2018-09-20T22:21:35.167Z,99524.12
2018-09-20T22:24:39.704Z,99525.17
2018-09-20T22:27:44.167Z,99524.05
2018-09-20T22:30:48.790Z,99517.53
2018-09-20T22:33:53.307Z,99510.48
2018-09-20T22:36:57.828Z,99505.28
2018-09-20T22:40:02.630Z,99498.66
2018-09-20T22:43:07.442Z,99499.75
2018-09-20T22:46:11.977Z,99503.55
2018-09-20T22:49:16.430Z,99503.25
2018-09-20T22:52:20.877Z,99494.92
2018-09-20T22:55:25.412Z,99490.48
2018-09-20T22:58:29.915Z,99486.89
2018-09-20T23:01:34.544Z,99487.36
2018-09-20T23:04:39.086Z,99488.95
2018-09-20T23:07:43.515Z,99476.20
2018-09-20T23:10:48.007Z,99485.39
2018-09-20T23:13:52.456Z,99487.42
2018-09-20T23:16:57.085Z,99479.47
2018-09-20T23:20:01.669Z,99483.00
2018-09-20T23:23:06.153Z,99475.02
2018-09-20T23:26:10.763Z,99472.31
2018-09-20T23:29:15.647Z,99486.58
2018-09-20T23:32:20.175Z,99478.37
2018-09-20T23:35:24.617Z,99471.94
2018-09-20T23:38:29.055Z,99465.66
2018-09-20T23:41:33.593Z,99461.78
2018-09-20T23:44:38.106Z,99457.91
2018-09-20T23:47:42.537Z,99466.00
2018-09-20T23:50:47.090Z,99452.59
2018-09-20T23:53:51.527Z,99454.96
2018-09-20T23:56:56.041Z,99452.70
